sensor_id;sensor_type;location;lat;lon;timestamp;pressure;altitude;pressure_sealevel;temperature;humidity
56912;BME280;42800;53.928;27.662;2022-09-09T00:00:17;100052.75;;;6.07;100.00
56912;BME280;42800;53.928;27.662;2022-09-09T00:02:49;100044.59;;;6.16;100.00
56912;BME280;42800;53.928;27.662;2022-09-09T00:05:26;100020.03;;;5.99;100.00
56912;BME280;42800;53.928;27.662;2022-09-09T00:07:58;100046.31;;;6.03;100.00
56912;BME280;42800;53.928;27.662;2022-09-09T00:10:29;100066.22;;;5.90;100.00
56912;BME280;42800;53.928;27.662;2022-09-09T00:13:01;100076.88;;;6.00;100.00
56912;BME280;42800;53.928;27.662;2022-09-09T00:15:30;100046.66;;;6.10;100.00
56912;BME280;42800;53.928;27.662;2022-09-09T00:18:07;100017.47;;;6.02;100.00
56912;BME280;42800;53.928;27.662;2022-09-09T00:20:44;100025.81;;;6.06;100.00
56912;BME280;42800;53.928;27.662;2022-09-09T00:23:20;100004.03;;;6.06;100.00
56912;BME280;42800;53.928;27.662;2022-09-09T00:25:56;100009.88;;;5.90;100.00
56912;BME280;42800;53.928;27.662;2022-09-09T00:28:26;100034.66;;;5.89;100.00
56912;BME280;42800;53.928;27.662;2022-09-09T00:30:59;100062.38;;;5.91;100.00
56912;BME280;42800;53.928;27.662;2022-09-09T00:33:28;100056.25;;;5.85;100.00
56912;BME280;42800;53.928;27.662;2022-09-09T00:35:57;100066.44;;;5.94;100.00
56912;BME280;42800;53.928;27.662;2022-09-09T00:38:28;100039.50;;;5.70;100.00
56912;BME280;42800;53.928;27.662;2022-09-09T00:41:03;100078.53;;;5.87;100.00
56912;BME280;42800;53.928;27.662;2022-09-09T00:43:35;100055.22;;;5.95;100.00
56912;BME280;42800;53.928;27.662;2022-09-09T00:46:25;100041.16;;;5.93;100.00
56912;BME280;42800;53.928;27.662;2022-09-09T00:49:02;100028.41;;;5.80;100.00
56912;BME280;42800;53.928;27.662;2022-09-09T00:51:40;100062.03;;;5.84;100.00
56912;BME280;42800;53.928;27.662;2022-09-09T00:54:31;100092.16;;;5.29;100.00
56912;BME280;42800;53.928;27.662;2022-09-09T00:57:12;100165.22;;;5.58;100.00
56912;BME280;42800;53.928;27.662;2022-09-09T00:59:46;100174.41;;;5.48;100.00
56912;BME280;42800;53.928;27.662;2022-09-09T01:02:19;100198.78;;;5.53;100.00
56912;BME280;42800;53.928;27.662;2022-09-09T01:04:48;100235.59;;;5.23;100.00
56912;BME280;42800;53.928;27.662;2022-09-09T01:07:16;100252.25;;;5.58;100.00
56912;BME280;42800;53.928;27.662;2022-09-09T01:09:52;100227.09;;;5.38;100.00
56912;BME280;42800;53.928;27.662;2022-09-09T01:12:24;100235.78;;;5.40;100.00
56912;BME280;42800;53.928;27.662;2022-09-09T01:14:54;100227.69;;;5.49;100.00
56912;BME280;42800;53.928;27.662;2022-09-09T01:17:26;100224.25;;;5.57;100.00
56912;BME280;42800;53.928;27.662;2022-09-09T01:20:04;100226.09;;;5.48;100.00
56912;BME280;42800;53.928;27.662;2022-09-09T01:22:36;100251.38;;;5.49;100.00
56912;BME280;42800;53.928;27.662;2022-09-09T01:25:18;100236.88;;;5.53;100.00
56912;BME280;42800;53.928;27.662;2022-09-09T01:27:47;100229.44;;;5.31;100.00
56912;BME280;42800;53.928;27.662;2022-09-09T01:30:16;100236.16;;;5.48;100.00
56912;BME280;42800;53.928;27.662;2022-09-09T01:32:44;100239.09;;;5.37;100.00
56912;BME280;42800;53.928;27.662;2022-09-09T01:35:15;100266.09;;;5.34;100.00
56912;BME280;42800;53.928;27.662;2022-09-09T01:37:44;100277.66;;;5.26;100.00
56912;BME280;42800;53.928;27.662;2022-09-09T01:40:10;100282.00;;;5.27;100.00
56912;BME280;42800;53.928;27.662;2022-09-09T01:42:36;100265.19;;;5.38;100.00
56912;BME280;42800;53.928;27.662;2022-09-09T01:45:04;100267.09;;;5.10;100.00
56912;BME280;42800;53.928;27.662;2022-09-09T01:47:31;100278.47;;;5.26;100.00
56912;BME280;42800;53.928;27.662;2022-09-09T01:49:58;100271.53;;;5.20;100.00
56912;BME280;42800;53.928;27.662;2022-09-09T01:52:25;100264.25;;;5.15;100.00
56912;BME280;42800;53.928;27.662;2022-09-09T01:54:51;100270.50;;;5.16;100.00
56912;BME280;42800;53.928;27.662;2022-09-09T01:57:22;100274.84;;;5.17;100.00
56912;BME280;42800;53.928;27.662;2022-09-09T02:00:03;100273.94;;;5.08;100.00
56912;BME280;42800;53.928;27.662;2022-09-09T02:02:36;100288.03;;;5.10;100.00
56912;BME280;42800;53.928;27.662;2022-09-09T02:05:14;100290.03;;;4.90;100.00
56912;BME280;42800;53.928;27.662;2022-09-09T02:07:47;100320.03;;;5.13;100.00
56912;BME280;42800;53.928;27.662;2022-09-09T02:10:17;100305.97;;;5.11;100.00
56912;BME280;42800;53.928;27.662;2022-09-09T02:12:45;100313.28;;;4.97;100.00
56912;BME280;42800;53.928;27.662;2022-09-09T02:15:17;100330.41;;;4.97;100.00
56912;BME280;42800;53.928;27.662;2022-09-09T02:17:49;100328.09;;;5.04;100.00
56912;BME280;42800;53.928;27.662;2022-09-09T02:20:19;100340.78;;;5.09;100.00
56912;BME280;42800;53.928;27.662;2022-09-09T02:22:47;100348.81;;;5.00;100.00
56912;BME280;42800;53.928;27.662;2022-09-09T02:25:18;100339.97;;;5.08;100.00
56912;BME280;42800;53.928;27.662;2022-09-09T02:27:47;100347.91;;;4.91;100.00
56912;BME280;42800;53.928;27.662;2022-09-09T02:30:15;100349.00;;;4.90;100.00
56912;BME280;42800;53.928;27.662;2022-09-09T02:32:42;100357.84;;;4.95;100.00
56912;BME280;42800;53.928;27.662;2022-09-09T02:35:13;100348.94;;;4.76;100.00
56912;BME280;42800;53.928;27.662;2022-09-09T02:37:41;100351.66;;;4.76;100.00
56912;BME280;42800;53.928;27.662;2022-09-09T02:40:10;100350.06;;;4.75;100.00
56912;BME280;42800;53.928;27.662;2022-09-09T02:42:39;100354.38;;;4.76;100.00
56912;BME280;42800;53.928;27.662;2022-09-09T02:45:07;100352.63;;;4.66;100.00
56912;BME280;42800;53.928;27.662;2022-09-09T02:47:35;100351.72;;;4.90;100.00
56912;BME280;42800;53.928;27.662;2022-09-09T02:50:11;100345.00;;;5.01;100.00
56912;BME280;42800;53.928;27.662;2022-09-09T02:52:46;100351.72;;;4.90;100.00
56912;BME280;42800;53.928;27.662;2022-09-09T02:55:18;100351.63;;;4.95;100.00
56912;BME280;42800;53.928;27.662;2022-09-09T02:57:47;100361.19;;;5.06;100.00
56912;BME280;42800;53.928;27.662;2022-09-09T03:00:15;100346.13;;;5.00;100.00
56912;BME280;42800;53.928;27.662;2022-09-09T03:02:41;100344.66;;;4.89;100.00
56912;BME280;42800;53.928;27.662;2022-09-09T03:05:08;100345.66;;;4.93;100.00
56912;BME280;42800;53.928;27.662;2022-09-09T03:07:35;100347.16;;;4.85;100.00
56912;BME280;42800;53.928;27.662;2022-09-09T03:10:01;100353.28;;;4.77;100.00
56912;BME280;42800;53.928;27.662;2022-09-09T03:12:27;100356.03;;;4.58;100.00
56912;BME280;42800;53.928;27.662;2022-09-09T03:14:53;100359.31;;;4.74;100.00
56912;BME280;42800;53.928;27.662;2022-09-09T03:17:19;100364.53;;;4.52;100.00
56912;BME280;42800;53.928;27.662;2022-09-09T03:19:46;100370.19;;;4.55;100.00
56912;BME280;42800;53.928;27.662;2022-09-09T03:22:14;100367.25;;;4.70;100.00
56912;BME280;42800;53.928;27.662;2022-09-09T03:24:41;100371.75;;;4.61;100.00
56912;BME280;42800;53.928;27.662;2022-09-09T03:27:07;100370.56;;;4.30;100.00
56912;BME280;42800;53.928;27.662;2022-09-09T03:29:34;100368.81;;;4.58;100.00
56912;BME280;42800;53.928;27.662;2022-09-09T03:32:01;100381.63;;;4.71;100.00
56912;BME280;42800;53.928;27.662;2022-09-09T03:34:27;100383.91;;;4.26;100.00
56912;BME280;42800;53.928;27.662;2022-09-09T03:36:53;100387.22;;;4.61;100.00
56912;BME280;42800;53.928;27.662;2022-09-09T03:39:19;100392.38;;;4.24;100.00
56912;BME280;42800;53.928;27.662;2022-09-09T03:41:46;100394.19;;;4.29;100.00
56912;BME280;42800;53.928;27.662;2022-09-09T03:44:13;100386.66;;;4.45;100.00
56912;BME280;42800;53.928;27.662;2022-09-09T03:46:40;100384.66;;;4.32;100.00
56912;BME280;42800;53.928;27.662;2022-09-09T03:49:06;100392.59;;;4.28;100.00
56912;BME280;42800;53.928;27.662;2022-09-09T03:51:32;100383.63;;;4.09;100.00
56912;BME280;42800;53.928;27.662;2022-09-09T03:54:02;100384.13;;;4.30;100.00
56912;BME280;42800;53.928;27.662;2022-09-09T03:56:30;100403.38;;;4.52;100.00
56912;BME280;42800;53.928;27.662;2022-09-09T03:58:58;100411.97;;;4.40;100.00
56912;BME280;42800;53.928;27.662;2022-09-09T04:01:24;100412.41;;;4.47;100.00
56912;BME280;42800;53.928;27.662;2022-09-09T04:03:50;100397.44;;;4.50;100.00
56912;BME280;42800;53.928;27.662;2022-09-09T04:06:17;100394.72;;;4.50;100.00
56912;BME280;42800;53.928;27.662;2022-09-09T04:08:43;100394.50;;;4.98;100.00
56912;BME280;42800;53.928;27.662;2022-09-09T04:11:10;100400.28;;;5.84;100.00
56912;BME280;42800;53.928;27.662;2022-09-09T04:13:37;100346.31;;;6.50;100.00
56912;BME280;42800;53.928;27.662;2022-09-09T04:16:05;100199.38;;;7.42;100.00
56912;BME280;42800;53.928;27.662;2022-09-09T04:18:32;99924.44;;;7.95;100.00
56912;BME280;42800;53.928;27.662;2022-09-09T04:20:58;99537.88;;;8.64;100.00
56912;BME280;42800;53.928;27.662;2022-09-09T04:23:25;99228.53;;;9.06;100.00
56912;BME280;42800;53.928;27.662;2022-09-09T04:25:53;99049.97;;;9.21;100.00
56912;BME280;42800;53.928;27.662;2022-09-09T04:28:22;98998.25;;;8.77;100.00
56912;BME280;42800;53.928;27.662;2022-09-09T04:30:49;98996.41;;;8.65;100.00
56912;BME280;42800;53.928;27.662;2022-09-09T04:33:16;98994.78;;;8.80;100.00
56912;BME280;42800;53.928;27.662;2022-09-09T04:35:45;98982.16;;;9.50;100.00
56912;BME280;42800;53.928;27.662;2022-09-09T04:38:12;98971.50;;;9.45;100.00
56912;BME280;42800;53.928;27.662;2022-09-09T04:40:38;98985.72;;;10.42;100.00
56912;BME280;42800;53.928;27.662;2022-09-09T04:43:07;99004.84;;;10.65;100.00
56912;BME280;42800;53.928;27.662;2022-09-09T04:45:34;99027.03;;;11.40;100.00
56912;BME280;42800;53.928;27.662;2022-09-09T04:48:01;99081.97;;;11.13;100.00
56912;BME280;42800;53.928;27.662;2022-09-09T04:50:28;99082.59;;;10.76;100.00
56912;BME280;42800;53.928;27.662;2022-09-09T04:52:54;99031.38;;;10.57;100.00
56912;BME280;42800;53.928;27.662;2022-09-09T04:55:20;99056.72;;;10.28;100.00
56912;BME280;42800;53.928;27.662;2022-09-09T04:57:46;99069.19;;;11.54;100.00
56912;BME280;42800;53.928;27.662;2022-09-09T05:00:14;99112.31;;;11.84;100.00
56912;BME280;42800;53.928;27.662;2022-09-09T05:02:42;99188.41;;;11.84;100.00
56912;BME280;42800;53.928;27.662;2022-09-09T05:05:08;99166.56;;;11.64;100.00
56912;BME280;42800;53.928;27.662;2022-09-09T05:07:37;99167.97;;;12.11;100.00
56912;BME280;42800;53.928;27.662;2022-09-09T05:10:04;99195.22;;;12.23;100.00
56912;BME280;42800;53.928;27.662;2022-09-09T05:12:31;99179.56;;;12.28;100.00
56912;BME280;42800;53.928;27.662;2022-09-09T05:14:57;99242.91;;;12.08;100.00
56912;BME280;42800;53.928;27.662;2022-09-09T05:17:24;99111.28;;;11.66;100.00
56912;BME280;42800;53.928;27.662;2022-09-09T05:19:50;99143.69;;;11.83;100.00
56912;BME280;42800;53.928;27.662;2022-09-09T05:22:18;99085.81;;;10.59;100.00
56912;BME280;42800;53.928;27.662;2022-09-09T05:24:46;99074.53;;;10.87;100.00
56912;BME280;42800;53.928;27.662;2022-09-09T05:27:13;99138.94;;;12.51;100.00
56912;BME280;42800;53.928;27.662;2022-09-09T05:29:40;99166.25;;;12.70;100.00
56912;BME280;42800;53.928;27.662;2022-09-09T05:32:07;99221.56;;;13.51;100.00
56912;BME280;42800;53.928;27.662;2022-09-09T05:34:33;99267.03;;;13.82;100.00
56912;BME280;42800;53.928;27.662;2022-09-09T05:37:00;99213.53;;;12.83;100.00
56912;BME280;42800;53.928;27.662;2022-09-09T05:39:26;99243.69;;;13.65;100.00
56912;BME280;42800;53.928;27.662;2022-09-09T05:41:53;99307.41;;;13.19;100.00
56912;BME280;42800;53.928;27.662;2022-09-09T05:44:20;99326.34;;;13.65;100.00
56912;BME280;42800;53.928;27.662;2022-09-09T05:46:48;99328.84;;;14.47;100.00
56912;BME280;42800;53.928;27.662;2022-09-09T05:49:15;99338.59;;;14.30;100.00
56912;BME280;42800;53.928;27.662;2022-09-09T05:51:41;99356.19;;;14.73;100.00
56912;BME280;42800;53.928;27.662;2022-09-09T05:54:08;99341.97;;;14.05;100.00
56912;BME280;42800;53.928;27.662;2022-09-09T05:56:34;99368.59;;;15.33;100.00
56912;BME280;42800;53.928;27.662;2022-09-09T05:59:01;99453.56;;;16.29;100.00
56912;BME280;42800;53.928;27.662;2022-09-09T06:01:29;99428.59;;;15.50;100.00
56912;BME280;42800;53.928;27.662;2022-09-09T06:03:55;99396.13;;;14.35;100.00
56912;BME280;42800;53.928;27.662;2022-09-09T06:06:23;99373.84;;;14.62;100.00
56912;BME280;42800;53.928;27.662;2022-09-09T06:08:53;99405.06;;;14.73;100.00
56912;BME280;42800;53.928;27.662;2022-09-09T06:11:21;99402.69;;;14.71;100.00
56912;BME280;42800;53.928;27.662;2022-09-09T06:13:48;99422.28;;;14.55;100.00
56912;BME280;42800;53.928;27.662;2022-09-09T06:16:19;99394.16;;;15.05;100.00
56912;BME280;42800;53.928;27.662;2022-09-09T06:18:45;99465.78;;;15.78;100.00
56912;BME280;42800;53.928;27.662;2022-09-09T06:21:15;99416.38;;;14.53;100.00
56912;BME280;42800;53.928;27.662;2022-09-09T06:23:42;99394.16;;;15.09;100.00
56912;BME280;42800;53.928;27.662;2022-09-09T06:26:11;99436.13;;;16.75;100.00
56912;BME280;42800;53.928;27.662;2022-09-09T06:28:37;99485.81;;;15.43;100.00
56912;BME280;42800;53.928;27.662;2022-09-09T06:31:09;99474.88;;;15.82;100.00
56912;BME280;42800;53.928;27.662;2022-09-09T06:33:37;99462.28;;;16.20;100.00
56912;BME280;42800;53.928;27.662;2022-09-09T06:36:06;99524.53;;;17.36;100.00
56912;BME280;42800;53.928;27.662;2022-09-09T06:38:32;99540.03;;;17.30;100.00
56912;BME280;42800;53.928;27.662;2022-09-09T06:40:59;99520.53;;;15.37;100.00
56912;BME280;42800;53.928;27.662;2022-09-09T06:43:26;99459.28;;;15.13;100.00
56912;BME280;42800;53.928;27.662;2022-09-09T06:45:56;99451.38;;;15.12;100.00
56912;BME280;42800;53.928;27.662;2022-09-09T06:48:22;99434.97;;;14.64;100.00
56912;BME280;42800;53.928;27.662;2022-09-09T06:50:49;99416.03;;;14.62;100.00
56912;BME280;42800;53.928;27.662;2022-09-09T06:53:16;99459.91;;;16.01;100.00
56912;BME280;42800;53.928;27.662;2022-09-09T06:55:45;99530.00;;;17.61;100.00
56912;BME280;42800;53.928;27.662;2022-09-09T06:58:11;99563.53;;;17.92;100.00
56912;BME280;42800;53.928;27.662;2022-09-09T07:00:37;99510.63;;;15.36;100.00
56912;BME280;42800;53.928;27.662;2022-09-09T07:03:04;99491.50;;;16.36;100.00
56912;BME280;42800;53.928;27.662;2022-09-09T07:05:30;99492.28;;;15.86;100.00
56912;BME280;42800;53.928;27.662;2022-09-09T07:07:57;99486.31;;;15.70;100.00
56912;BME280;42800;53.928;27.662;2022-09-09T07:10:24;99485.16;;;15.85;100.00
56912;BME280;42800;53.928;27.662;2022-09-09T07:12:50;99467.91;;;15.04;100.00
56912;BME280;42800;53.928;27.662;2022-09-09T07:15:17;99425.94;;;14.70;100.00
56912;BME280;42800;53.928;27.662;2022-09-09T07:17:44;99438.00;;;15.28;100.00
56912;BME280;42800;53.928;27.662;2022-09-09T07:20:12;99479.59;;;15.71;100.00
56912;BME280;42800;53.928;27.662;2022-09-09T07:22:40;99478.25;;;15.33;100.00
56912;BME280;42800;53.928;27.662;2022-09-09T07:25:07;99455.94;;;14.82;100.00
56912;BME280;42800;53.928;27.662;2022-09-09T07:27:34;99440.88;;;14.62;100.00
56912;BME280;42800;53.928;27.662;2022-09-09T07:30:00;99439.28;;;14.61;100.00
56912;BME280;42800;53.928;27.662;2022-09-09T07:32:28;99481.53;;;15.60;100.00
56912;BME280;42800;53.928;27.662;2022-09-09T07:34:55;99504.16;;;16.80;100.00
56912;BME280;42800;53.928;27.662;2022-09-09T07:37:23;99552.41;;;16.50;100.00
56912;BME280;42800;53.928;27.662;2022-09-09T07:39:50;99510.41;;;15.69;100.00
56912;BME280;42800;53.928;27.662;2022-09-09T07:42:17;99526.66;;;16.71;100.00
56912;BME280;42800;53.928;27.662;2022-09-09T07:44:44;99515.19;;;15.87;100.00
56912;BME280;42800;53.928;27.662;2022-09-09T07:47:10;99538.16;;;17.97;100.00
56912;BME280;42800;53.928;27.662;2022-09-09T07:49:37;99585.38;;;17.79;100.00
56912;BME280;42800;53.928;27.662;2022-09-09T07:52:03;99592.50;;;17.87;100.00
56912;BME280;42800;53.928;27.662;2022-09-09T07:54:29;99596.69;;;18.69;100.00
56912;BME280;42800;53.928;27.662;2022-09-09T07:56:55;99590.97;;;17.61;100.00
56912;BME280;42800;53.928;27.662;2022-09-09T07:59:22;99569.69;;;17.29;100.00
56912;BME280;42800;53.928;27.662;2022-09-09T08:01:51;99581.22;;;17.17;100.00
56912;BME280;42800;53.928;27.662;2022-09-09T08:04:21;99556.72;;;16.98;100.00
56912;BME280;42800;53.928;27.662;2022-09-09T08:06:49;99579.44;;;17.84;100.00
56912;BME280;42800;53.928;27.662;2022-09-09T08:09:18;99572.28;;;18.46;100.00
56912;BME280;42800;53.928;27.662;2022-09-09T08:11:45;99616.91;;;19.93;95.75
56912;BME280;42800;53.928;27.662;2022-09-09T08:14:13;99601.25;;;18.97;100.00
56912;BME280;42800;53.928;27.662;2022-09-09T08:16:41;99599.53;;;18.02;100.00
56912;BME280;42800;53.928;27.662;2022-09-09T08:19:08;99554.00;;;16.76;100.00
56912;BME280;42800;53.928;27.662;2022-09-09T08:21:36;99550.41;;;16.40;100.00
56912;BME280;42800;53.928;27.662;2022-09-09T08:24:04;99534.19;;;16.67;100.00
56912;BME280;42800;53.928;27.662;2022-09-09T08:26:32;99544.00;;;15.86;100.00
56912;BME280;42800;53.928;27.662;2022-09-09T08:29:01;99527.88;;;16.41;100.00
56912;BME280;42800;53.928;27.662;2022-09-09T08:31:29;99523.91;;;16.03;100.00
56912;BME280;42800;53.928;27.662;2022-09-09T08:33:56;99553.94;;;16.65;100.00
56912;BME280;42800;53.928;27.662;2022-09-09T08:36:25;99551.31;;;15.46;100.00
56912;BME280;42800;53.928;27.662;2022-09-09T08:38:54;99539.88;;;15.40;100.00
56912;BME280;42800;53.928;27.662;2022-09-09T08:41:46;99522.09;;;15.34;100.00
56912;BME280;42800;53.928;27.662;2022-09-09T08:44:22;99529.38;;;15.78;100.00
56912;BME280;42800;53.928;27.662;2022-09-09T08:46:58;99487.28;;;15.19;100.00
56912;BME280;42800;53.928;27.662;2022-09-09T08:49:44;99481.97;;;14.78;100.00
56912;BME280;42800;53.928;27.662;2022-09-09T08:52:18;99489.41;;;14.70;100.00
56912;BME280;42800;53.928;27.662;2022-09-09T08:54:46;99490.34;;;14.99;100.00
56912;BME280;42800;53.928;27.662;2022-09-09T08:57:16;99516.59;;;15.41;100.00
56912;BME280;42800;53.928;27.662;2022-09-09T08:59:44;99499.25;;;15.51;100.00
56912;BME280;42800;53.928;27.662;2022-09-09T09:02:17;99495.97;;;15.17;100.00
56912;BME280;42800;53.928;27.662;2022-09-09T09:05:00;99518.22;;;15.49;100.00
56912;BME280;42800;53.928;27.662;2022-09-09T09:07:38;99499.53;;;15.18;100.00
56912;BME280;42800;53.928;27.662;2022-09-09T09:10:14;99516.59;;;15.48;100.00
56912;BME280;42800;53.928;27.662;2022-09-09T09:12:43;99533.75;;;15.90;100.00
56912;BME280;42800;53.928;27.662;2022-09-09T09:15:16;99570.16;;;16.31;100.00
56912;BME280;42800;53.928;27.662;2022-09-09T09:17:44;99551.19;;;16.69;100.00
56912;BME280;42800;53.928;27.662;2022-09-09T09:20:13;99566.19;;;16.21;100.00
56912;BME280;42800;53.928;27.662;2022-09-09T09:22:47;99544.47;;;16.52;100.00
56912;BME280;42800;53.928;27.662;2022-09-09T09:25:17;99540.50;;;16.10;100.00
56912;BME280;42800;53.928;27.662;2022-09-09T09:27:49;99550.78;;;16.74;100.00
56912;BME280;42800;53.928;27.662;2022-09-09T09:30:19;99524.38;;;15.18;100.00
56912;BME280;42800;53.928;27.662;2022-09-09T09:32:51;99511.00;;;15.27;100.00
56912;BME280;42800;53.928;27.662;2022-09-09T09:35:20;99522.31;;;16.09;100.00
56912;BME280;42800;53.928;27.662;2022-09-09T09:37:47;99541.31;;;16.32;100.00
56912;BME280;42800;53.928;27.662;2022-09-09T09:40:15;99554.34;;;16.28;100.00
56912;BME280;42800;53.928;27.662;2022-09-09T09:42:48;99551.59;;;17.00;100.00
56912;BME280;42800;53.928;27.662;2022-09-09T09:45:20;99559.91;;;16.57;100.00
56912;BME280;42800;53.928;27.662;2022-09-09T09:48:00;99543.69;;;16.34;100.00
56912;BME280;42800;53.928;27.662;2022-09-09T09:50:30;99547.59;;;17.08;100.00
56912;BME280;42800;53.928;27.662;2022-09-09T09:52:59;99552.38;;;16.57;100.00
56912;BME280;42800;53.928;27.662;2022-09-09T09:55:28;99548.84;;;16.60;100.00
56912;BME280;42800;53.928;27.662;2022-09-09T09:58:01;99555.53;;;16.52;100.00
56912;BME280;42800;53.928;27.662;2022-09-09T10:00:29;99546.41;;;16.02;100.00
56912;BME280;42800;53.928;27.662;2022-09-09T10:02:55;99537.78;;;15.16;100.00
56912;BME280;42800;53.928;27.662;2022-09-09T10:05:23;99528.72;;;15.19;100.00
56912;BME280;42800;53.928;27.662;2022-09-09T10:08:04;99519.00;;;15.50;100.00
56912;BME280;42800;53.928;27.662;2022-09-09T10:10:43;99536.56;;;16.18;100.00
56912;BME280;42800;53.928;27.662;2022-09-09T10:13:18;99540.50;;;15.99;100.00
56912;BME280;42800;53.928;27.662;2022-09-09T10:15:52;99559.41;;;15.87;99.13
56912;BME280;42800;53.928;27.662;2022-09-09T10:18:42;99575.88;;;14.92;100.00
56912;BME280;42800;53.928;27.662;2022-09-09T10:21:20;99560.00;;;14.75;100.00
56912;BME280;42800;53.928;27.662;2022-09-09T10:24:03;99555.19;;;14.65;100.00
56912;BME280;42800;53.928;27.662;2022-09-09T10:26:40;99543.56;;;14.41;100.00
56912;BME280;42800;53.928;27.662;2022-09-09T10:29:21;99530.59;;;14.01;100.00
56912;BME280;42800;53.928;27.662;2022-09-09T10:31:59;99546.28;;;14.38;100.00
56912;BME280;42800;53.928;27.662;2022-09-09T10:34:44;99534.31;;;14.23;100.00
56912;BME280;42800;53.928;27.662;2022-09-09T10:37:19;99538.47;;;14.43;100.00
56912;BME280;42800;53.928;27.662;2022-09-09T10:39:56;99534.03;;;14.79;100.00
56912;BME280;42800;53.928;27.662;2022-09-09T10:42:30;99548.75;;;14.50;100.00
56912;BME280;42800;53.928;27.662;2022-09-09T10:45:07;99547.31;;;15.29;100.00
56912;BME280;42800;53.928;27.662;2022-09-09T10:47:47;99559.25;;;14.81;100.00
56912;BME280;42800;53.928;27.662;2022-09-09T10:50:29;99552.63;;;14.90;100.00
56912;BME280;42800;53.928;27.662;2022-09-09T10:53:03;99555.09;;;15.09;100.00
56912;BME280;42800;53.928;27.662;2022-09-09T10:55:39;99575.06;;;15.50;98.30
56912;BME280;42800;53.928;27.662;2022-09-09T10:58:12;99565.00;;;15.14;99.29
56912;BME280;42800;53.928;27.662;2022-09-09T11:00:43;99559.69;;;14.83;100.00
56912;BME280;42800;53.928;27.662;2022-09-09T11:03:14;99568.78;;;14.40;100.00
56912;BME280;42800;53.928;27.662;2022-09-09T11:05:43;99570.16;;;14.60;100.00
56912;BME280;42800;53.928;27.662;2022-09-09T11:08:13;99560.50;;;14.88;99.01
56912;BME280;42800;53.928;27.662;2022-09-09T11:10:44;99558.78;;;14.69;99.35
56912;BME280;42800;53.928;27.662;2022-09-09T11:13:17;99572.38;;;14.99;99.00
56912;BME280;42800;53.928;27.662;2022-09-09T11:15:49;99564.44;;;14.42;100.00
56912;BME280;42800;53.928;27.662;2022-09-09T11:18:19;99571.47;;;14.77;99.57
56912;BME280;42800;53.928;27.662;2022-09-09T11:20:47;99565.38;;;15.12;99.80
56912;BME280;42800;53.928;27.662;2022-09-09T11:23:17;99565.53;;;14.78;100.00
56912;BME280;42800;53.928;27.662;2022-09-09T11:25:51;99578.25;;;14.46;99.46
56912;BME280;42800;53.928;27.662;2022-09-09T11:28:36;99566.34;;;14.79;100.00
56912;BME280;42800;53.928;27.662;2022-09-09T11:31:19;99564.41;;;14.39;100.00
56912;BME280;42800;53.928;27.662;2022-09-09T11:33:58;99552.38;;;14.54;100.00
56912;BME280;42800;53.928;27.662;2022-09-09T11:36:43;99542.91;;;14.14;100.00
56912;BME280;42800;53.928;27.662;2022-09-09T11:42:16;99525.56;;;14.10;100.00
56912;BME280;42800;53.928;27.662;2022-09-09T11:44:44;99536.63;;;14.13;100.00
56912;BME280;42800;53.928;27.662;2022-09-09T11:47:19;99543.28;;;14.12;100.00
56912;BME280;42800;53.928;27.662;2022-09-09T11:49:47;99531.06;;;14.10;100.00
56912;BME280;42800;53.928;27.662;2022-09-09T11:52:21;99525.25;;;14.22;100.00
56912;BME280;42800;53.928;27.662;2022-09-09T11:54:49;99522.81;;;14.54;100.00
56912;BME280;42800;53.928;27.662;2022-09-09T11:57:24;99527.59;;;14.61;100.00
56912;BME280;42800;53.928;27.662;2022-09-09T11:59:52;99515.63;;;14.46;100.00
56912;BME280;42800;53.928;27.662;2022-09-09T12:02:22;99541.16;;;14.88;100.00
56912;BME280;42800;53.928;27.662;2022-09-09T12:04:55;99524.19;;;14.34;100.00
56912;BME280;42800;53.928;27.662;2022-09-09T12:07:30;99524.47;;;14.22;100.00
56912;BME280;42800;53.928;27.662;2022-09-09T12:10:01;99511.22;;;14.38;100.00
56912;BME280;42800;53.928;27.662;2022-09-09T12:12:31;99515.22;;;14.44;100.00
56912;BME280;42800;53.928;27.662;2022-09-09T12:15:17;99526.50;;;14.76;100.00
56912;BME280;42800;53.928;27.662;2022-09-09T12:17:48;99527.66;;;14.24;100.00
56912;BME280;42800;53.928;27.662;2022-09-09T12:20:18;99509.06;;;14.62;100.00
56912;BME280;42800;53.928;27.662;2022-09-09T12:25:52;99519.00;;;14.29;100.00
56912;BME280;42800;53.928;27.662;2022-09-09T12:28:24;99520.44;;;14.12;100.00
56912;BME280;42800;53.928;27.662;2022-09-09T12:30:57;99501.69;;;14.32;100.00
56912;BME280;42800;53.928;27.662;2022-09-09T12:33:34;99518.09;;;14.14;100.00
56912;BME280;42800;53.928;27.662;2022-09-09T12:36:01;99504.03;;;14.26;100.00
56912;BME280;42800;53.928;27.662;2022-09-09T12:38:32;99511.88;;;14.21;100.00
56912;BME280;42800;53.928;27.662;2022-09-09T12:41:00;99503.97;;;14.64;100.00
56912;BME280;42800;53.928;27.662;2022-09-09T12:43:28;99510.38;;;14.30;100.00
56912;BME280;42800;53.928;27.662;2022-09-09T12:45:57;99514.53;;;14.54;100.00
56912;BME280;42800;53.928;27.662;2022-09-09T12:48:31;99503.50;;;14.54;100.00
56912;BME280;42800;53.928;27.662;2022-09-09T12:50:59;99509.94;;;14.73;100.00
56912;BME280;42800;53.928;27.662;2022-09-09T12:53:28;99533.84;;;14.54;100.00
56912;BME280;42800;53.928;27.662;2022-09-09T12:55:57;99524.09;;;14.68;100.00
56912;BME280;42800;53.928;27.662;2022-09-09T12:58:25;99516.53;;;14.57;100.00
56912;BME280;42800;53.928;27.662;2022-09-09T13:00:55;99509.44;;;14.60;100.00